createdAt,value
2022-10-23T00:01:45.604Z,0.90
2022-10-23T00:04:19.428Z,1.25
2022-10-23T00:06:48.963Z,1.70
2022-10-23T00:09:21.204Z,1.92
2022-10-23T00:11:50.646Z,1.05
2022-10-23T00:14:21.719Z,1.77
2022-10-23T00:16:50.620Z,1.23
2022-10-23T00:19:18.960Z,1.35
2022-10-23T00:21:47.315Z,1.13
2022-10-23T00:24:15.676Z,1.73
2022-10-23T00:26:44.041Z,1.10
2022-10-23T00:29:12.561Z,1.00
2022-10-23T00:31:40.863Z,1.38
2022-10-23T00:34:09.334Z,0.95
2022-10-23T00:36:38.079Z,1.75
2022-10-23T00:39:07.246Z,1.50
2022-10-23T00:41:35.586Z,1.13
2022-10-23T00:44:09.743Z,1.63
2022-10-23T00:46:39.422Z,0.93
2022-10-23T00:49:08.663Z,1.30
2022-10-23T00:51:43.745Z,2.00
2022-10-23T00:54:29.675Z,1.35
2022-10-23T00:57:01.205Z,1.30
2022-10-23T00:59:30.325Z,1.00
2022-10-23T01:01:59.846Z,1.52
2022-10-23T01:04:29.698Z,1.00
2022-10-23T01:07:13.515Z,0.90
2022-10-23T01:10:00.194Z,1.67
2022-10-23T01:12:31.471Z,0.60
2022-10-23T01:15:14.413Z,1.20
2022-10-23T01:18:25.276Z,2.15
2022-10-23T01:21:38.443Z,0.93
2022-10-23T01:24:17.689Z,1.00
2022-10-23T01:27:04.927Z,1.00
2022-10-23T01:29:44.287Z,1.38
2022-10-23T01:32:31.597Z,1.30
2022-10-23T01:35:18.868Z,1.20
2022-10-23T01:38:12.697Z,1.50
2022-10-23T01:40:58.719Z,1.63
2022-10-23T01:43:39.601Z,1.35
2022-10-23T01:46:11.596Z,1.05
2022-10-23T01:48:43.599Z,1.50
2022-10-23T01:51:15.304Z,0.60
2022-10-23T01:53:47.010Z,0.93
2022-10-23T01:56:24.695Z,1.00
2022-10-23T01:58:57.148Z,1.38
2022-10-23T02:01:30.699Z,1.20
2022-10-23T02:04:01.659Z,1.27
2022-10-23T02:06:30.313Z,2.00
2022-10-23T02:08:58.715Z,2.08
2022-10-23T02:11:27.635Z,1.25
2022-10-23T02:14:14.147Z,1.23
2022-10-23T02:16:54.300Z,3.35
2022-10-23T02:19:38.386Z,1.13
2022-10-23T02:22:31.017Z,2.08
2022-10-23T02:25:10.188Z,0.80
2022-10-23T02:27:55.807Z,2.60
2022-10-23T02:30:31.294Z,0.80
2022-10-23T02:33:10.967Z,1.10
2022-10-23T02:35:39.280Z,2.50
2022-10-23T02:38:31.956Z,2.10
2022-10-23T02:41:19.958Z,0.90
2022-10-23T02:43:55.382Z,1.00
2022-10-23T02:46:36.377Z,1.42
2022-10-23T02:49:15.922Z,1.15
2022-10-23T02:51:47.352Z,1.45
2022-10-23T02:54:49.653Z,1.27
2022-10-23T02:57:46.607Z,1.00
2022-10-23T03:00:17.601Z,1.40
2022-10-23T03:02:57.271Z,0.75
2022-10-23T03:05:32.711Z,1.00
2022-10-23T03:08:03.688Z,2.05
2022-10-23T03:10:32.016Z,0.85
2022-10-23T03:13:00.252Z,1.50
2022-10-23T03:15:33.335Z,1.13
2022-10-23T03:18:01.677Z,2.53
2022-10-23T03:20:30.089Z,2.20
2022-10-23T03:22:58.237Z,1.42
2022-10-23T03:25:28.045Z,1.20
2022-10-23T03:27:58.733Z,1.42
2022-10-23T03:30:27.244Z,1.27
2022-10-23T03:35:24.055Z,1.05
2022-10-23T03:37:52.119Z,2.58
2022-10-23T03:40:21.713Z,2.03
2022-10-23T03:42:49.848Z,1.65
2022-10-23T03:45:20.788Z,1.48
2022-10-23T03:47:49.987Z,1.35
2022-10-23T03:50:21.245Z,1.15
2022-10-23T03:52:49.712Z,3.05
2022-10-23T03:55:18.747Z,1.23
2022-10-23T03:57:47.280Z,0.82
2022-10-23T04:00:16.111Z,0.75
2022-10-23T04:02:44.704Z,1.65
2022-10-23T04:05:13.625Z,2.75
2022-10-23T04:07:50.615Z,1.02
2022-10-23T04:10:19.045Z,1.40
2022-10-23T04:12:47.247Z,1.52
2022-10-23T04:15:15.391Z,0.70
2022-10-23T04:17:46.978Z,1.88
2022-10-23T04:20:15.219Z,0.82
2022-10-23T04:22:43.678Z,2.00
2022-10-23T04:25:12.445Z,0.90
2022-10-23T04:27:40.951Z,1.52
2022-10-23T04:30:10.139Z,1.48
2022-10-23T04:32:39.551Z,2.05
2022-10-23T04:35:08.347Z,0.93
2022-10-23T04:37:36.525Z,1.67
2022-10-23T04:40:05.020Z,1.33
2022-10-23T04:42:36.237Z,1.27
2022-10-23T04:45:05.604Z,3.20
2022-10-23T04:47:34.387Z,2.28
2022-10-23T04:50:04.347Z,2.08
2022-10-23T04:52:55.764Z,2.30
2022-10-23T04:55:52.388Z,1.75
2022-10-23T04:58:46.478Z,1.70
2022-10-23T05:01:15.151Z,1.05
2022-10-23T05:03:43.433Z,0.88
2022-10-23T05:06:11.964Z,2.38
2022-10-23T05:08:51.450Z,1.40
2022-10-23T05:11:39.863Z,2.78
2022-10-23T05:14:10.135Z,1.02
2022-10-23T05:17:09.600Z,3.28
2022-10-23T05:19:47.248Z,1.48
2022-10-23T05:22:15.986Z,1.33
2022-10-23T05:24:50.902Z,1.35
2022-10-23T05:27:23.308Z,2.25
2022-10-23T05:29:53.377Z,0.90
2022-10-23T05:32:28.044Z,1.50
2022-10-23T05:34:56.733Z,1.27
2022-10-23T05:37:28.816Z,1.48
2022-10-23T05:40:10.620Z,1.60
2022-10-23T05:42:41.816Z,1.42
2022-10-23T05:45:12.342Z,1.77
2022-10-23T05:48:10.661Z,1.23
2022-10-23T05:51:10.750Z,0.75
2022-10-23T05:53:59.122Z,1.42
2022-10-23T05:56:36.449Z,1.58
2022-10-23T05:59:11.687Z,1.17
2022-10-23T06:01:51.350Z,1.90
2022-10-23T06:04:49.636Z,0.75
2022-10-23T06:07:30.230Z,2.17
2022-10-23T06:10:02.327Z,1.60
2022-10-23T06:12:32.485Z,1.42
2022-10-23T06:15:01.156Z,1.45
2022-10-23T06:17:47.220Z,1.42
2022-10-23T06:20:15.591Z,0.80
2022-10-23T06:22:45.951Z,0.80
2022-10-23T06:25:30.615Z,2.40
2022-10-23T06:27:59.360Z,1.52
2022-10-23T06:30:28.527Z,1.67
2022-10-23T06:32:56.818Z,1.98
2022-10-23T06:35:25.130Z,1.77
2022-10-23T06:37:53.340Z,0.90
2022-10-23T06:40:34.458Z,1.38
2022-10-23T06:43:06.668Z,2.03
2022-10-23T06:45:53.217Z,1.88
2022-10-23T06:48:53.083Z,1.33
2022-10-23T06:51:26.251Z,0.90
2022-10-23T06:53:54.437Z,1.10
2022-10-23T06:56:40.989Z,0.95
2022-10-23T06:59:10.637Z,1.35
2022-10-23T07:01:39.741Z,1.77
2022-10-23T07:04:09.115Z,1.30
2022-10-23T07:06:37.633Z,1.50
2022-10-23T07:09:06.763Z,1.88
2022-10-23T07:11:54.752Z,1.17
2022-10-23T07:14:29.816Z,1.23
2022-10-23T07:16:59.428Z,0.70
2022-10-23T07:19:29.237Z,1.48
2022-10-23T07:21:58.960Z,0.70
2022-10-23T07:24:35.749Z,1.38
2022-10-23T07:27:08.923Z,1.10
2022-10-23T07:29:37.099Z,0.80
2022-10-23T07:32:05.835Z,1.02
2022-10-23T07:34:52.482Z,1.77
2022-10-23T07:37:31.320Z,1.52
2022-10-23T07:40:02.554Z,1.50
2022-10-23T07:42:33.281Z,0.98
2022-10-23T07:47:30.520Z,1.00
2022-10-23T07:50:00.982Z,1.80
2022-10-23T07:52:32.083Z,1.02
2022-10-23T07:55:10.952Z,0.95
2022-10-23T07:57:46.791Z,0.70
2022-10-23T08:00:33.107Z,0.75
2022-10-23T08:03:12.343Z,1.13
2022-10-23T08:08:08.671Z,0.88
2022-10-23T08:10:39.492Z,0.63
2022-10-23T08:13:13.615Z,0.70
2022-10-23T08:15:53.343Z,0.80
2022-10-23T08:18:47.172Z,1.05
2022-10-23T08:21:16.258Z,1.58
2022-10-23T08:23:45.866Z,0.80
2022-10-23T08:26:14.346Z,0.70
2022-10-23T08:28:42.677Z,2.70
2022-10-23T08:31:14.888Z,0.88
2022-10-23T08:33:52.746Z,1.95
2022-10-23T08:36:25.499Z,0.80
2022-10-23T08:38:55.521Z,0.50
2022-10-23T08:41:37.701Z,1.33
2022-10-23T08:44:19.505Z,1.35
2022-10-23T08:47:11.064Z,1.25
2022-10-23T08:49:59.924Z,1.30
2022-10-23T08:52:51.077Z,1.02
2022-10-23T08:55:25.499Z,0.80
2022-10-23T08:58:18.071Z,0.95
2022-10-23T09:00:51.006Z,0.85
2022-10-23T09:03:19.457Z,1.25
2022-10-23T09:06:10.119Z,1.48
2022-10-23T09:09:15.586Z,1.30
2022-10-23T09:12:11.031Z,1.40
2022-10-23T09:15:02.363Z,1.58
2022-10-23T09:17:36.074Z,1.90
2022-10-23T09:20:19.625Z,1.65
2022-10-23T09:22:50.578Z,1.40
2022-10-23T09:25:25.205Z,1.48
2022-10-23T09:28:05.209Z,1.20
2022-10-23T09:30:42.288Z,1.02
2022-10-23T09:33:28.811Z,1.20
2022-10-23T09:36:08.856Z,2.38
2022-10-23T09:38:40.291Z,2.13
2022-10-23T09:41:22.297Z,1.50
2022-10-23T09:44:08.500Z,2.55
2022-10-23T09:46:47.223Z,1.48
2022-10-23T09:49:34.791Z,1.70
2022-10-23T09:52:22.748Z,1.87
2022-10-23T09:55:02.884Z,2.30
2022-10-23T09:57:49.838Z,1.80
2022-10-23T10:00:22.834Z,2.35
2022-10-23T10:03:01.194Z,2.20
2022-10-23T10:05:41.792Z,2.38
2022-10-23T10:08:22.751Z,1.73
2022-10-23T10:10:52.811Z,2.50
2022-10-23T10:13:35.773Z,1.30
2022-10-23T10:16:16.591Z,2.55
2022-10-23T10:18:57.424Z,2.78
2022-10-23T10:21:43.997Z,3.30
2022-10-23T10:24:33.290Z,3.45
2022-10-23T10:27:43.170Z,2.70
2022-10-23T10:30:20.987Z,2.17
2022-10-23T10:33:18.906Z,2.05
2022-10-23T10:35:55.769Z,3.30
2022-10-23T10:38:44.910Z,2.78
2022-10-23T10:41:34.370Z,3.08
2022-10-23T10:44:35.881Z,2.83
2022-10-23T10:47:20.943Z,2.03
2022-10-23T10:50:43.699Z,1.90
2022-10-23T10:53:34.471Z,2.25
2022-10-23T10:56:05.838Z,1.67
2022-10-23T10:58:48.417Z,1.92
2022-10-23T11:01:25.673Z,1.83
2022-10-23T11:04:11.785Z,1.80
2022-10-23T11:06:42.417Z,2.55
2022-10-23T11:09:30.573Z,2.08
2022-10-23T11:12:00.075Z,3.13
2022-10-23T11:14:32.404Z,1.95
2022-10-23T11:17:26.509Z,1.92
2022-10-23T11:20:17.355Z,1.60
2022-10-23T11:23:03.904Z,2.15
2022-10-23T11:25:50.514Z,2.25
2022-10-23T11:28:46.915Z,2.22
2022-10-23T11:31:37.339Z,1.80
2022-10-23T11:34:33.491Z,3.10
2022-10-23T11:37:03.305Z,1.67
2022-10-23T11:39:36.221Z,1.15
2022-10-23T11:42:10.057Z,1.80
2022-10-23T11:44:51.525Z,2.60
2022-10-23T11:47:40.371Z,1.52
2022-10-23T11:50:08.894Z,2.38
2022-10-23T11:52:50.338Z,2.80
2022-10-23T11:55:30.456Z,1.67
2022-10-23T11:58:19.470Z,1.77
2022-10-23T12:00:56.798Z,3.83
2022-10-23T12:03:54.588Z,2.42
2022-10-23T12:06:39.959Z,2.50
2022-10-23T12:09:27.776Z,3.38
2022-10-23T12:12:35.483Z,1.70
2022-10-23T12:15:12.718Z,3.42
2022-10-23T12:17:43.498Z,1.83
2022-10-23T12:20:12.129Z,2.40
2022-10-23T12:23:05.187Z,2.67
2022-10-23T12:25:39.534Z,2.00
2022-10-23T12:28:22.993Z,2.67
2022-10-23T12:31:17.424Z,2.03
2022-10-23T12:33:57.714Z,1.75
2022-10-23T12:36:44.157Z,2.70
2022-10-23T12:39:31.693Z,1.85
2022-10-23T12:42:01.401Z,1.80
2022-10-23T12:44:30.505Z,1.85
2022-10-23T12:47:01.889Z,1.85
2022-10-23T12:49:31.987Z,3.72
2022-10-23T12:52:15.816Z,2.00
2022-10-23T12:54:44.282Z,2.45
2022-10-23T12:57:25.237Z,2.95
2022-10-23T13:00:09.830Z,1.98
2022-10-23T13:02:38.401Z,2.22
2022-10-23T13:05:09.500Z,1.50
2022-10-23T13:07:43.234Z,1.83
2022-10-23T13:10:16.501Z,3.53
2022-10-23T13:13:06.435Z,2.22
2022-10-23T13:15:43.333Z,2.13
2022-10-23T13:18:13.619Z,4.15
2022-10-23T13:20:58.108Z,2.30
2022-10-23T13:23:36.160Z,4.45
2022-10-23T13:26:24.155Z,1.98
2022-10-23T13:28:52.529Z,4.28
2022-10-23T13:31:36.664Z,2.83
2022-10-23T13:34:14.868Z,3.28
2022-10-23T13:36:56.152Z,2.22
2022-10-23T13:39:30.005Z,4.00
2022-10-23T13:42:06.824Z,4.25
2022-10-23T13:44:34.966Z,3.58
2022-10-23T13:47:03.255Z,2.85
2022-10-23T13:49:31.441Z,2.88
2022-10-23T13:51:59.654Z,2.03
2022-10-23T13:54:30.565Z,2.58
2022-10-23T13:56:58.813Z,3.33
2022-10-23T13:59:27.041Z,2.75
2022-10-23T14:01:55.480Z,3.10
2022-10-23T14:04:23.919Z,4.20
2022-10-23T14:06:52.099Z,2.38
2022-10-23T14:09:20.248Z,3.58
2022-10-23T14:11:48.394Z,2.47
2022-10-23T14:14:16.602Z,2.90
2022-10-23T14:16:44.909Z,2.35
2022-10-23T14:19:13.128Z,2.65
2022-10-23T14:21:41.369Z,3.13
2022-10-23T14:24:09.727Z,2.95
2022-10-23T14:26:37.917Z,2.38
2022-10-23T14:29:11.431Z,2.95
2022-10-23T14:31:44.536Z,1.65
2022-10-23T14:34:12.655Z,1.35
2022-10-23T14:36:49.904Z,1.83
2022-10-23T14:39:19.016Z,1.88
2022-10-23T14:41:47.243Z,2.50
2022-10-23T14:44:15.427Z,1.75
2022-10-23T14:46:43.679Z,2.47
2022-10-23T14:49:11.925Z,1.75
2022-10-23T14:51:40.146Z,2.42
2022-10-23T14:54:08.980Z,2.45
2022-10-23T14:59:06.067Z,2.45
2022-10-23T15:01:41.237Z,1.63
2022-10-23T15:04:13.287Z,3.03
2022-10-23T15:06:41.535Z,1.45
2022-10-23T15:09:09.880Z,2.25
2022-10-23T15:11:37.899Z,4.05
2022-10-23T15:14:06.161Z,2.30
2022-10-23T15:16:34.434Z,1.83
2022-10-23T15:19:02.559Z,2.97
2022-10-23T15:21:30.813Z,1.90
2022-10-23T15:24:01.722Z,2.15
2022-10-23T15:26:29.869Z,2.30
2022-10-23T15:29:00.995Z,3.60
2022-10-23T15:31:38.060Z,2.33
2022-10-23T15:34:08.027Z,3.90
2022-10-23T15:36:36.214Z,1.20
2022-10-23T15:39:08.628Z,2.03
2022-10-23T15:41:38.449Z,3.67
2022-10-23T15:44:07.887Z,3.75
2022-10-23T15:46:36.604Z,2.70
2022-10-23T15:49:05.518Z,2.75
2022-10-23T15:51:33.716Z,4.63
2022-10-23T15:54:02.062Z,1.50
2022-10-23T15:56:30.200Z,2.25
2022-10-23T15:58:58.722Z,1.90
2022-10-23T16:01:27.020Z,3.38
2022-10-23T16:03:55.539Z,3.33
2022-10-23T16:06:24.180Z,2.78
2022-10-23T16:08:55.253Z,1.92
2022-10-23T16:11:29.825Z,1.50
2022-10-23T16:14:00.072Z,2.80
2022-10-23T16:16:29.485Z,2.17
2022-10-23T16:19:00.399Z,1.55
2022-10-23T16:21:30.619Z,2.33
2022-10-23T16:23:59.928Z,2.58
2022-10-23T16:26:30.243Z,1.52
2022-10-23T16:29:01.053Z,2.30
2022-10-23T16:31:29.817Z,3.17
2022-10-23T16:36:34.828Z,2.58
2022-10-23T16:39:18.095Z,2.95
2022-10-23T16:42:05.127Z,1.95
2022-10-23T16:45:02.549Z,3.22
2022-10-23T16:47:36.999Z,2.08
2022-10-23T16:50:05.508Z,2.15
2022-10-23T16:52:33.572Z,3.20
2022-10-23T16:55:01.842Z,3.83
2022-10-23T16:57:30.042Z,4.53
2022-10-23T16:59:58.324Z,5.28
2022-10-23T17:02:26.736Z,3.97
2022-10-23T17:04:56.328Z,6.35
2022-10-23T17:07:24.457Z,4.43
2022-10-23T17:09:52.642Z,3.22
2022-10-23T17:12:20.754Z,5.78
2022-10-23T17:14:49.029Z,5.13
2022-10-23T17:17:17.149Z,4.05
2022-10-23T17:19:46.487Z,3.03
2022-10-23T17:22:16.140Z,3.53
2022-10-23T17:24:47.472Z,4.60
2022-10-23T17:27:18.436Z,2.65
2022-10-23T17:29:46.637Z,4.47
2022-10-23T17:32:15.042Z,3.58
2022-10-23T17:34:43.129Z,4.45
2022-10-23T17:37:11.378Z,4.03
2022-10-23T17:39:41.658Z,3.00
2022-10-23T17:42:10.344Z,4.30
2022-10-23T17:44:38.516Z,3.53
2022-10-23T17:47:06.840Z,2.53
2022-10-23T17:49:35.107Z,3.20
2022-10-23T17:52:03.113Z,3.10
2022-10-23T17:54:31.673Z,2.90
2022-10-23T17:57:00.077Z,4.05
2022-10-23T17:59:28.723Z,3.30
2022-10-23T18:01:57.135Z,2.88
2022-10-23T18:04:25.679Z,3.90
2022-10-23T18:06:54.657Z,2.28
2022-10-23T18:09:23.495Z,5.80
2022-10-23T18:11:51.977Z,2.20
2022-10-23T18:14:21.904Z,3.15
2022-10-23T18:16:51.034Z,3.83
2022-10-23T18:19:19.839Z,4.35
2022-10-23T18:21:48.908Z,3.25
2022-10-23T18:24:18.095Z,6.68
2022-10-23T18:26:47.178Z,4.32
2022-10-23T18:29:16.810Z,3.97
2022-10-23T18:31:46.090Z,5.45
2022-10-23T18:34:25.604Z,4.57
2022-10-23T18:36:55.324Z,4.43
2022-10-23T18:39:25.588Z,5.05
2022-10-23T18:41:57.056Z,8.10
2022-10-23T18:44:27.456Z,5.43
2022-10-23T18:46:57.159Z,6.30
2022-10-23T18:49:25.656Z,4.55
2022-10-23T18:54:22.670Z,4.88
2022-10-23T18:56:51.525Z,6.47
2022-10-23T19:01:49.994Z,5.97
2022-10-23T19:04:19.180Z,7.07
2022-10-23T19:06:48.556Z,6.57
2022-10-23T19:09:17.704Z,8.18
2022-10-23T19:11:46.326Z,6.85
2022-10-23T19:16:59.850Z,5.95
2022-10-23T19:19:40.657Z,5.78
2022-10-23T19:22:10.464Z,6.72
2022-10-23T19:24:45.641Z,8.45
2022-10-23T19:27:14.189Z,8.30
2022-10-23T19:29:45.804Z,6.22
2022-10-23T19:32:14.659Z,10.52
2022-10-23T19:37:11.173Z,8.48
2022-10-23T19:39:39.275Z,9.07
2022-10-23T19:42:07.470Z,9.95
2022-10-23T19:44:42.096Z,10.00
2022-10-23T19:47:10.431Z,8.52
2022-10-23T19:49:38.654Z,11.38
2022-10-23T19:52:07.113Z,11.75
2022-10-23T19:54:35.362Z,11.77
2022-10-23T19:57:03.879Z,11.73
2022-10-23T19:59:32.051Z,8.70
2022-10-23T20:02:00.474Z,8.82
2022-10-23T20:04:28.956Z,8.57
2022-10-23T20:06:57.651Z,9.07
2022-10-23T20:09:26.033Z,8.82
2022-10-23T20:14:22.393Z,8.55
2022-10-23T20:16:54.948Z,7.53
2022-10-23T20:19:24.279Z,7.50
2022-10-23T20:21:52.864Z,9.45
2022-10-23T20:29:19.738Z,6.88
2022-10-23T20:34:15.910Z,9.35
2022-10-23T20:36:47.442Z,6.45
2022-10-23T20:39:23.837Z,5.57
2022-10-23T20:41:53.056Z,6.50
2022-10-23T20:44:21.110Z,5.78
2022-10-23T20:46:50.307Z,7.65
2022-10-23T20:49:19.340Z,6.28
2022-10-23T20:54:25.984Z,6.07
2022-10-23T20:56:54.433Z,5.82
2022-10-23T20:59:22.596Z,6.22
2022-10-23T21:01:53.047Z,5.50
2022-10-23T21:04:24.683Z,4.65
2022-10-23T21:07:09.327Z,5.43
2022-10-23T21:09:39.694Z,7.22
2022-10-23T21:12:08.239Z,4.93
2022-10-23T21:14:37.392Z,6.25
2022-10-23T21:17:05.823Z,4.63
2022-10-23T21:19:34.134Z,5.35
2022-10-23T21:22:02.556Z,4.35
2022-10-23T21:24:30.667Z,3.83
2022-10-23T21:26:58.875Z,5.95
2022-10-23T21:29:27.258Z,4.28
2022-10-23T21:31:58.340Z,5.32
2022-10-23T21:34:27.925Z,4.53
2022-10-23T21:37:13.477Z,4.72
2022-10-23T21:39:43.952Z,3.95
2022-10-23T21:42:13.572Z,4.88
2022-10-23T21:44:41.851Z,3.67
2022-10-23T21:47:10.350Z,5.65
2022-10-23T21:49:38.625Z,5.13
2022-10-23T21:52:07.110Z,3.85
2022-10-23T21:54:35.401Z,5.28
2022-10-23T21:57:03.730Z,4.40
2022-10-23T21:59:34.822Z,5.47
2022-10-23T22:02:04.637Z,5.10
2022-10-23T22:04:33.397Z,5.30
2022-10-23T22:07:01.569Z,4.70
2022-10-23T22:09:29.851Z,3.85
2022-10-23T22:11:58.256Z,4.75
2022-10-23T22:14:27.681Z,3.75
2022-10-23T22:16:56.075Z,3.60
2022-10-23T22:19:24.637Z,4.88
2022-10-23T22:24:21.171Z,3.75
2022-10-23T22:26:54.606Z,4.28
2022-10-23T22:29:25.933Z,4.20
2022-10-23T22:31:54.337Z,4.97
2022-10-23T22:34:41.154Z,3.22
2022-10-23T22:37:14.402Z,5.13
2022-10-23T22:39:43.299Z,3.92
2022-10-23T22:42:11.671Z,3.83
2022-10-23T22:44:39.897Z,4.20
2022-10-23T22:47:08.296Z,4.13
2022-10-23T22:49:36.601Z,3.25
2022-10-23T22:52:04.977Z,4.82
2022-10-23T22:54:33.239Z,4.90
2022-10-23T22:57:01.631Z,4.30
2022-10-23T22:59:29.920Z,3.95
2022-10-23T23:01:58.180Z,4.10
2022-10-23T23:04:37.301Z,3.42
2022-10-23T23:07:11.647Z,4.90
2022-10-23T23:09:43.069Z,3.17
2022-10-23T23:12:13.414Z,3.28
2022-10-23T23:14:42.594Z,4.95
2022-10-23T23:17:11.207Z,4.32
2022-10-23T23:19:39.581Z,3.45
2022-10-23T23:22:08.435Z,3.17
2022-10-23T23:24:36.617Z,2.67
2022-10-23T23:27:04.961Z,3.38
2022-10-23T23:29:33.413Z,4.18
2022-10-23T23:32:01.611Z,4.15
2022-10-23T23:34:29.870Z,3.17
2022-10-23T23:36:58.176Z,3.50
2022-10-23T23:39:26.372Z,4.20
2022-10-23T23:41:54.682Z,3.10
2022-10-23T23:44:22.948Z,2.92
2022-10-23T23:46:51.173Z,3.88
2022-10-23T23:49:19.539Z,3.90
2022-10-23T23:51:47.757Z,2.90
2022-10-23T23:54:16.282Z,3.75
2022-10-23T23:56:44.548Z,3.70
2022-10-23T23:59:12.873Z,2.58
